Flight Number: EUR2030 Duration: 3:30
Departure: Reykjavik (BIRK) at 18:15 Distance: 1445 Nm
Arrival: Munich Int'l (EDDM) at 21:45 Equipment: B737

Weather Information
Reykjavik, Iceland (BIRK) 64-08N 021-54W 61M Sep 21, 2017 - 05:00 PM EDT / 2017.09.21 2100 UTC
Wind: from the E (090 degrees) at 9 MPH (8 KT):0
Visibility: greater than 7 mile(s):0
Sky conditions: mostly cloudy Temperature: 46 F (8 C) Dew Point: 37 F (3 C) Relative Humidity: 70% Pressure (altimeter): 29.47 in. Hg (0998 hPa)
ob: BIRK 212100Z 09008KT 9999 FEW016 SCT031 BKN070 08/03 Q0998 cycle: 21
Sunrise: 07:15 Sunset: 19:25 (UTC)

Munchen, Germany (EDDM) 48-21N 011-47E Sep 21, 2017 - 05:20 PM EDT / 2017.09.21 2120 UTC
Wind: from the NNE (030 degrees) at 2 MPH (2 KT):0
Visibility: greater than 7 mile(s):0 Weather: shallow fog Temperature: 42 F (6 C) Dew Point: 41 F (5 C) Relative Humidity: 93% Pressure (altimeter): 30.15 in. Hg (1021 hPa)
ob: EDDM 212120Z 03002KT 9999 MIFG NSC 06/05 Q1021 NOSIG cycle: 21
Sunrise: 05:02 Sunset: 17:08 (UTC)

TAF:2017/09/21 18:27 TAF EDDM 211700Z 2118/2224 VRB03KT CAVOK TEMPO 2200/2208 2000 BCFG PROB30 TEMPO 2202/2207 0400 FG TEMPO 2223/2224 2000 BCFG

Previous Pireps for this route
Date Aircraft Flight time Fuel used Landing rate On time
2013-01-27B7373.10198660No
2014-01-17B73704.3733433-310No
2015-01-02B73703.4818833-179Charter
(pireps marked green are flown by you)

Route map